sensor_id;sensor_type;location;lat;lon;timestamp;pressure;altitude;pressure_sealevel;temperature;humidity
8416;BME280;4245;42.120;24.732;2023-02-28T00:01:06;99802.53;;;11.48;100.00
8416;BME280;4245;42.120;24.732;2023-02-28T00:03:33;99816.81;;;11.47;100.00
8416;BME280;4245;42.120;24.732;2023-02-28T00:06:01;99811.44;;;11.61;100.00
8416;BME280;4245;42.120;24.732;2023-02-28T00:08:28;99813.94;;;11.50;100.00
8416;BME280;4245;42.120;24.732;2023-02-28T00:10:55;99811.34;;;11.36;100.00
8416;BME280;4245;42.120;24.732;2023-02-28T00:13:23;99815.34;;;11.28;100.00
8416;BME280;4245;42.120;24.732;2023-02-28T00:15:58;99821.44;;;11.16;100.00
8416;BME280;4245;42.120;24.732;2023-02-28T00:18:25;99820.22;;;11.22;100.00
8416;BME280;4245;42.120;24.732;2023-02-28T00:20:52;99820.84;;;11.25;100.00
8416;BME280;4245;42.120;24.732;2023-02-28T00:23:19;99820.47;;;11.31;100.00
8416;BME280;4245;42.120;24.732;2023-02-28T00:25:46;99814.00;;;11.36;100.00
8416;BME280;4245;42.120;24.732;2023-02-28T00:28:13;99815.50;;;11.40;100.00
8416;BME280;4245;42.120;24.732;2023-02-28T00:30:41;99807.13;;;11.46;100.00
8416;BME280;4245;42.120;24.732;2023-02-28T00:33:08;99806.53;;;11.55;100.00
8416;BME280;4245;42.120;24.732;2023-02-28T00:35:35;99812.63;;;11.57;100.00
8416;BME280;4245;42.120;24.732;2023-02-28T00:38:02;99801.66;;;11.61;100.00
8416;BME280;4245;42.120;24.732;2023-02-28T00:40:29;99810.19;;;11.66;100.00
8416;BME280;4245;42.120;24.732;2023-02-28T00:42:56;99800.13;;;11.57;100.00
8416;BME280;4245;42.120;24.732;2023-02-28T00:45:22;99811.84;;;11.55;100.00
8416;BME280;4245;42.120;24.732;2023-02-28T00:47:51;99815.16;;;11.58;100.00
8416;BME280;4245;42.120;24.732;2023-02-28T00:50:18;99810.44;;;11.49;100.00
8416;BME280;4245;42.120;24.732;2023-02-28T00:52:46;99811.03;;;11.40;100.00
8416;BME280;4245;42.120;24.732;2023-02-28T00:55:13;99802.13;;;11.41;100.00
8416;BME280;4245;42.120;24.732;2023-02-28T00:57:40;99805.13;;;11.49;100.00
8416;BME280;4245;42.120;24.732;2023-02-28T01:00:08;99816.31;;;11.54;100.00
8416;BME280;4245;42.120;24.732;2023-02-28T01:02:35;99821.47;;;11.43;100.00
8416;BME280;4245;42.120;24.732;2023-02-28T01:05:04;99822.06;;;11.34;100.00
8416;BME280;4245;42.120;24.732;2023-02-28T01:07:31;99822.19;;;11.32;100.00
8416;BME280;4245;42.120;24.732;2023-02-28T01:09:58;99822.31;;;11.44;100.00
8416;BME280;4245;42.120;24.732;2023-02-28T01:12:24;99815.34;;;11.55;100.00
8416;BME280;4245;42.120;24.732;2023-02-28T01:14:51;99823.72;;;11.49;100.00
8416;BME280;4245;42.120;24.732;2023-02-28T01:17:18;99828.72;;;11.41;100.00
8416;BME280;4245;42.120;24.732;2023-02-28T01:19:45;99834.09;;;11.13;100.00
8416;BME280;4245;42.120;24.732;2023-02-28T01:22:13;99846.31;;;11.15;100.00
8416;BME280;4245;42.120;24.732;2023-02-28T01:24:40;99848.44;;;10.96;100.00
8416;BME280;4245;42.120;24.732;2023-02-28T01:27:06;99834.22;;;10.69;100.00
8416;BME280;4245;42.120;24.732;2023-02-28T01:29:33;99829.94;;;10.66;100.00
8416;BME280;4245;42.120;24.732;2023-02-28T01:32:00;99834.03;;;10.58;100.00
8416;BME280;4245;42.120;24.732;2023-02-28T01:34:27;99835.63;;;10.60;100.00
8416;BME280;4245;42.120;24.732;2023-02-28T01:36:54;99846.16;;;10.76;100.00
8416;BME280;4245;42.120;24.732;2023-02-28T01:39:22;99846.72;;;10.67;100.00
8416;BME280;4245;42.120;24.732;2023-02-28T01:41:49;99858.78;;;10.58;100.00
8416;BME280;4245;42.120;24.732;2023-02-28T01:47:20;99870.84;;;10.64;100.00
8416;BME280;4245;42.120;24.732;2023-02-28T01:49:47;99881.81;;;10.43;100.00
8416;BME280;4245;42.120;24.732;2023-02-28T01:52:15;99884.66;;;10.40;100.00
8416;BME280;4245;42.120;24.732;2023-02-28T01:54:46;99886.16;;;10.30;100.00
8416;BME280;4245;42.120;24.732;2023-02-28T01:57:18;99877.50;;;10.27;100.00
8416;BME280;4245;42.120;24.732;2023-02-28T01:59:50;99883.84;;;10.24;100.00
8416;BME280;4245;42.120;24.732;2023-02-28T02:02:20;99884.34;;;10.31;100.00
8416;BME280;4245;42.120;24.732;2023-02-28T02:04:51;99918.09;;;10.29;100.00
8416;BME280;4245;42.120;24.732;2023-02-28T02:07:20;99906.81;;;10.10;100.00
8416;BME280;4245;42.120;24.732;2023-02-28T02:09:49;99908.88;;;10.04;100.00
8416;BME280;4245;42.120;24.732;2023-02-28T02:12:26;99904.34;;;10.07;100.00
8416;BME280;4245;42.120;24.732;2023-02-28T02:15:02;99905.94;;;10.09;100.00
8416;BME280;4245;42.120;24.732;2023-02-28T02:17:38;99902.03;;;10.00;100.00
8416;BME280;4245;42.120;24.732;2023-02-28T02:20:38;99911.78;;;10.00;100.00
8416;BME280;4245;42.120;24.732;2023-02-28T02:26:51;99904.06;;;10.11;100.00
8416;BME280;4245;42.120;24.732;2023-02-28T02:29:47;99908.97;;;10.19;100.00
8416;BME280;4245;42.120;24.732;2023-02-28T02:32:42;99909.03;;;10.17;100.00
8416;BME280;4245;42.120;24.732;2023-02-28T02:35:17;99911.94;;;10.13;100.00
8416;BME280;4245;42.120;24.732;2023-02-28T02:37:50;99910.41;;;10.09;100.00
8416;BME280;4245;42.120;24.732;2023-02-28T02:40:21;99915.78;;;10.07;100.00
8416;BME280;4245;42.120;24.732;2023-02-28T02:42:52;99911.44;;;10.06;100.00
8416;BME280;4245;42.120;24.732;2023-02-28T02:45:25;99918.28;;;10.10;100.00
8416;BME280;4245;42.120;24.732;2023-02-28T02:47:55;99921.53;;;10.15;100.00
8416;BME280;4245;42.120;24.732;2023-02-28T02:50:28;99925.94;;;10.16;100.00
8416;BME280;4245;42.120;24.732;2023-02-28T02:53:00;99932.69;;;10.06;100.00
8416;BME280;4245;42.120;24.732;2023-02-28T02:55:28;99937.97;;;10.22;100.00
8416;BME280;4245;42.120;24.732;2023-02-28T02:57:59;99947.03;;;10.33;100.00
8416;BME280;4245;42.120;24.732;2023-02-28T03:00:30;99940.78;;;10.34;100.00
8416;BME280;4245;42.120;24.732;2023-02-28T03:03:01;99945.84;;;10.23;100.00
8416;BME280;4245;42.120;24.732;2023-02-28T03:05:32;99951.56;;;10.31;100.00
8416;BME280;4245;42.120;24.732;2023-02-28T03:08:03;99957.06;;;10.28;100.00
8416;BME280;4245;42.120;24.732;2023-02-28T03:10:36;99960.22;;;10.35;100.00
8416;BME280;4245;42.120;24.732;2023-02-28T03:13:37;99957.00;;;10.30;100.00
8416;BME280;4245;42.120;24.732;2023-02-28T03:16:22;99960.84;;;10.24;100.00
8416;BME280;4245;42.120;24.732;2023-02-28T03:18:54;99964.25;;;10.26;100.00
8416;BME280;4245;42.120;24.732;2023-02-28T03:21:32;99968.81;;;10.24;100.00
8416;BME280;4245;42.120;24.732;2023-02-28T03:24:04;99968.63;;;10.27;100.00
8416;BME280;4245;42.120;24.732;2023-02-28T03:26:36;99977.44;;;10.28;100.00
8416;BME280;4245;42.120;24.732;2023-02-28T03:29:10;99977.53;;;10.26;100.00
8416;BME280;4245;42.120;24.732;2023-02-28T03:31:45;99973.47;;;10.21;100.00
8416;BME280;4245;42.120;24.732;2023-02-28T03:34:19;99975.06;;;10.23;100.00
8416;BME280;4245;42.120;24.732;2023-02-28T03:36:52;99976.84;;;10.23;100.00
8416;BME280;4245;42.120;24.732;2023-02-28T03:39:23;99972.75;;;10.17;100.00
8416;BME280;4245;42.120;24.732;2023-02-28T03:41:53;99980.28;;;10.09;100.00
8416;BME280;4245;42.120;24.732;2023-02-28T03:44:27;99975.63;;;10.13;100.00
8416;BME280;4245;42.120;24.732;2023-02-28T03:46:59;99976.69;;;10.10;100.00
8416;BME280;4245;42.120;24.732;2023-02-28T03:49:30;99986.13;;;10.16;100.00
8416;BME280;4245;42.120;24.732;2023-02-28T03:52:01;99978.56;;;10.24;100.00
8416;BME280;4245;42.120;24.732;2023-02-28T03:54:31;99988.16;;;10.11;100.00
8416;BME280;4245;42.120;24.732;2023-02-28T03:57:02;99994.41;;;10.10;100.00
8416;BME280;4245;42.120;24.732;2023-02-28T03:59:34;99990.13;;;10.07;100.00
8416;BME280;4245;42.120;24.732;2023-02-28T04:02:02;100001.59;;;10.08;100.00
8416;BME280;4245;42.120;24.732;2023-02-28T04:04:29;100005.38;;;10.03;100.00
8416;BME280;4245;42.120;24.732;2023-02-28T04:07:03;100005.53;;;9.85;100.00
8416;BME280;4245;42.120;24.732;2023-02-28T04:09:30;100008.47;;;9.80;100.00
8416;BME280;4245;42.120;24.732;2023-02-28T04:11:57;100018.13;;;9.81;100.00
8416;BME280;4245;42.120;24.732;2023-02-28T04:14:24;100022.16;;;9.73;100.00
8416;BME280;4245;42.120;24.732;2023-02-28T04:16:51;100027.53;;;9.71;100.00
8416;BME280;4245;42.120;24.732;2023-02-28T04:19:19;100027.00;;;9.65;100.00
8416;BME280;4245;42.120;24.732;2023-02-28T04:21:47;100028.28;;;9.73;100.00
8416;BME280;4245;42.120;24.732;2023-02-28T04:24:17;100035.41;;;9.73;100.00
8416;BME280;4245;42.120;24.732;2023-02-28T04:26:45;100026.25;;;9.63;100.00
8416;BME280;4245;42.120;24.732;2023-02-28T04:29:17;100024.81;;;9.73;100.00
8416;BME280;4245;42.120;24.732;2023-02-28T04:31:44;100023.34;;;9.67;100.00
8416;BME280;4245;42.120;24.732;2023-02-28T04:34:11;100028.41;;;9.72;100.00
8416;BME280;4245;42.120;24.732;2023-02-28T04:36:38;100026.25;;;9.78;100.00
8416;BME280;4245;42.120;24.732;2023-02-28T04:39:05;100020.00;;;9.79;100.00
8416;BME280;4245;42.120;24.732;2023-02-28T04:41:33;100018.47;;;9.75;100.00
8416;BME280;4245;42.120;24.732;2023-02-28T04:44:00;100024.03;;;9.86;100.00
8416;BME280;4245;42.120;24.732;2023-02-28T04:46:27;100023.84;;;9.74;100.00
8416;BME280;4245;42.120;24.732;2023-02-28T04:48:54;100026.69;;;9.86;100.00
8416;BME280;4245;42.120;24.732;2023-02-28T04:51:20;100029.44;;;9.85;100.00
8416;BME280;4245;42.120;24.732;2023-02-28T04:53:48;100020.94;;;9.94;100.00
8416;BME280;4245;42.120;24.732;2023-02-28T04:56:16;100013.31;;;9.88;100.00
8416;BME280;4245;42.120;24.732;2023-02-28T04:58:45;100025.00;;;10.01;100.00
8416;BME280;4245;42.120;24.732;2023-02-28T05:01:18;100044.44;;;10.01;100.00
8416;BME280;4245;42.120;24.732;2023-02-28T05:03:45;100053.91;;;9.90;100.00
8416;BME280;4245;42.120;24.732;2023-02-28T05:06:12;100049.88;;;9.98;100.00
8416;BME280;4245;42.120;24.732;2023-02-28T05:08:40;100048.69;;;10.04;100.00
8416;BME280;4245;42.120;24.732;2023-02-28T05:11:13;100055.72;;;10.05;100.00
8416;BME280;4245;42.120;24.732;2023-02-28T05:13:41;100058.38;;;10.05;100.00
8416;BME280;4245;42.120;24.732;2023-02-28T05:16:09;100061.63;;;10.10;100.00
8416;BME280;4245;42.120;24.732;2023-02-28T05:18:35;100058.56;;;10.02;100.00
8416;BME280;4245;42.120;24.732;2023-02-28T05:21:02;100064.00;;;9.99;100.00
8416;BME280;4245;42.120;24.732;2023-02-28T05:23:29;100058.91;;;9.96;100.00
8416;BME280;4245;42.120;24.732;2023-02-28T05:25:56;100061.38;;;9.99;100.00
8416;BME280;4245;42.120;24.732;2023-02-28T05:28:23;100070.00;;;10.02;100.00
8416;BME280;4245;42.120;24.732;2023-02-28T05:30:50;100082.34;;;10.03;100.00
8416;BME280;4245;42.120;24.732;2023-02-28T05:33:18;100085.59;;;10.09;100.00
8416;BME280;4245;42.120;24.732;2023-02-28T05:35:45;100087.25;;;10.11;100.00
8416;BME280;4245;42.120;24.732;2023-02-28T05:38:12;100087.88;;;10.16;100.00
8416;BME280;4245;42.120;24.732;2023-02-28T05:40:38;100093.19;;;10.16;100.00
8416;BME280;4245;42.120;24.732;2023-02-28T05:43:05;100093.09;;;10.33;100.00
8416;BME280;4245;42.120;24.732;2023-02-28T05:45:34;100094.97;;;10.31;100.00
8416;BME280;4245;42.120;24.732;2023-02-28T05:48:02;100096.75;;;10.46;100.00
8416;BME280;4245;42.120;24.732;2023-02-28T05:50:30;100099.88;;;10.39;100.00
8416;BME280;4245;42.120;24.732;2023-02-28T05:52:57;100091.72;;;10.42;100.00
8416;BME280;4245;42.120;24.732;2023-02-28T05:55:23;100097.13;;;10.25;100.00
8416;BME280;4245;42.120;24.732;2023-02-28T05:57:50;100103.19;;;10.42;100.00
8416;BME280;4245;42.120;24.732;2023-02-28T06:00:17;100100.53;;;10.42;100.00
8416;BME280;4245;42.120;24.732;2023-02-28T06:02:44;100108.91;;;10.51;100.00
8416;BME280;4245;42.120;24.732;2023-02-28T06:05:13;100109.78;;;10.51;100.00
8416;BME280;4245;42.120;24.732;2023-02-28T06:07:42;100114.56;;;10.60;100.00
8416;BME280;4245;42.120;24.732;2023-02-28T06:10:10;100119.66;;;10.49;100.00
8416;BME280;4245;42.120;24.732;2023-02-28T06:12:37;100121.78;;;10.58;100.00
8416;BME280;4245;42.120;24.732;2023-02-28T06:15:05;100122.13;;;10.68;100.00
8416;BME280;4245;42.120;24.732;2023-02-28T06:17:32;100132.47;;;10.72;100.00
8416;BME280;4245;42.120;24.732;2023-02-28T06:19:59;100129.81;;;10.72;100.00
8416;BME280;4245;42.120;24.732;2023-02-28T06:22:26;100125.03;;;10.79;100.00
8416;BME280;4245;42.120;24.732;2023-02-28T06:24:54;100124.91;;;10.96;100.00
8416;BME280;4245;42.120;24.732;2023-02-28T06:27:22;100129.19;;;10.99;100.00
8416;BME280;4245;42.120;24.732;2023-02-28T06:29:49;100128.41;;;10.97;100.00
8416;BME280;4245;42.120;24.732;2023-02-28T06:32:19;100131.06;;;10.97;100.00
8416;BME280;4245;42.120;24.732;2023-02-28T06:34:46;100132.19;;;10.93;100.00
8416;BME280;4245;42.120;24.732;2023-02-28T06:37:13;100134.66;;;10.96;100.00
8416;BME280;4245;42.120;24.732;2023-02-28T06:39:40;100134.69;;;10.80;100.00
8416;BME280;4245;42.120;24.732;2023-02-28T06:42:08;100124.16;;;10.78;100.00
8416;BME280;4245;42.120;24.732;2023-02-28T06:44:35;100124.25;;;10.77;100.00
8416;BME280;4245;42.120;24.732;2023-02-28T06:47:03;100125.63;;;10.84;100.00
8416;BME280;4245;42.120;24.732;2023-02-28T06:49:30;100126.97;;;10.91;100.00
8416;BME280;4245;42.120;24.732;2023-02-28T06:51:57;100127.91;;;10.90;100.00
8416;BME280;4245;42.120;24.732;2023-02-28T06:54:24;100132.34;;;10.89;100.00
8416;BME280;4245;42.120;24.732;2023-02-28T06:56:51;100136.38;;;10.97;100.00
8416;BME280;4245;42.120;24.732;2023-02-28T06:59:21;100143.16;;;11.02;100.00
8416;BME280;4245;42.120;24.732;2023-02-28T07:01:47;100145.47;;;11.08;100.00
8416;BME280;4245;42.120;24.732;2023-02-28T07:04:14;100145.09;;;11.14;100.00
8416;BME280;4245;42.120;24.732;2023-02-28T07:06:41;100141.28;;;11.18;100.00
8416;BME280;4245;42.120;24.732;2023-02-28T07:09:08;100138.19;;;11.26;100.00
8416;BME280;4245;42.120;24.732;2023-02-28T07:11:36;100137.66;;;11.35;100.00
8416;BME280;4245;42.120;24.732;2023-02-28T07:14:02;100144.97;;;11.31;100.00
8416;BME280;4245;42.120;24.732;2023-02-28T07:16:31;100146.19;;;11.26;100.00
8416;BME280;4245;42.120;24.732;2023-02-28T07:18:57;100142.94;;;11.21;100.00
8416;BME280;4245;42.120;24.732;2023-02-28T07:21:24;100143.59;;;11.24;100.00
8416;BME280;4245;42.120;24.732;2023-02-28T07:23:51;100151.50;;;11.26;100.00
8416;BME280;4245;42.120;24.732;2023-02-28T07:26:20;100154.34;;;11.23;100.00
8416;BME280;4245;42.120;24.732;2023-02-28T07:28:47;100161.63;;;11.19;100.00
8416;BME280;4245;42.120;24.732;2023-02-28T07:31:15;100156.44;;;11.02;100.00
8416;BME280;4245;42.120;24.732;2023-02-28T07:33:44;100164.47;;;11.16;100.00
8416;BME280;4245;42.120;24.732;2023-02-28T07:36:13;100161.75;;;11.18;100.00
8416;BME280;4245;42.120;24.732;2023-02-28T07:38:40;100159.47;;;11.26;100.00
8416;BME280;4245;42.120;24.732;2023-02-28T07:41:07;100162.25;;;11.09;100.00
8416;BME280;4245;42.120;24.732;2023-02-28T07:43:34;100163.03;;;11.11;100.00
8416;BME280;4245;42.120;24.732;2023-02-28T07:46:03;100166.53;;;11.11;100.00
8416;BME280;4245;42.120;24.732;2023-02-28T07:48:30;100158.50;;;11.13;100.00
8416;BME280;4245;42.120;24.732;2023-02-28T07:50:59;100155.56;;;11.17;100.00
8416;BME280;4245;42.120;24.732;2023-02-28T07:53:26;100165.66;;;11.26;100.00
8416;BME280;4245;42.120;24.732;2023-02-28T07:55:55;100167.38;;;11.27;100.00
8416;BME280;4245;42.120;24.732;2023-02-28T07:58:22;100168.16;;;11.14;100.00
8416;BME280;4245;42.120;24.732;2023-02-28T08:00:49;100166.53;;;11.11;100.00
8416;BME280;4245;42.120;24.732;2023-02-28T08:03:17;100173.31;;;11.17;100.00
8416;BME280;4245;42.120;24.732;2023-02-28T08:05:44;100168.06;;;11.15;100.00
8416;BME280;4245;42.120;24.732;2023-02-28T08:08:12;100169.00;;;11.14;100.00
8416;BME280;4245;42.120;24.732;2023-02-28T08:10:39;100177.16;;;11.27;100.00
8416;BME280;4245;42.120;24.732;2023-02-28T08:13:07;100182.81;;;11.21;100.00
8416;BME280;4245;42.120;24.732;2023-02-28T08:15:34;100178.16;;;11.24;100.00
8416;BME280;4245;42.120;24.732;2023-02-28T08:18:01;100178.84;;;11.28;100.00
8416;BME280;4245;42.120;24.732;2023-02-28T08:20:28;100179.44;;;11.33;100.00
8416;BME280;4245;42.120;24.732;2023-02-28T08:22:56;100176.34;;;11.41;100.00
8416;BME280;4245;42.120;24.732;2023-02-28T08:25:24;100175.78;;;11.50;100.00
8416;BME280;4245;42.120;24.732;2023-02-28T08:27:52;100161.63;;;11.49;100.00
8416;BME280;4245;42.120;24.732;2023-02-28T08:30:19;100160.94;;;11.75;100.00
8416;BME280;4245;42.120;24.732;2023-02-28T08:32:45;100171.31;;;11.80;100.00
8416;BME280;4245;42.120;24.732;2023-02-28T08:35:12;100168.44;;;11.83;100.00
8416;BME280;4245;42.120;24.732;2023-02-28T08:37:39;100164.94;;;11.97;100.00
8416;BME280;4245;42.120;24.732;2023-02-28T08:40:07;100167.44;;;12.00;100.00
8416;BME280;4245;42.120;24.732;2023-02-28T08:42:36;100173.78;;;11.97;100.00
8416;BME280;4245;42.120;24.732;2023-02-28T08:45:03;100174.56;;;11.85;100.00
8416;BME280;4245;42.120;24.732;2023-02-28T08:47:30;100178.53;;;11.92;100.00
8416;BME280;4245;42.120;24.732;2023-02-28T08:49:57;100173.78;;;12.11;100.00
8416;BME280;4245;42.120;24.732;2023-02-28T08:52:24;100176.72;;;12.21;100.00
8416;BME280;4245;42.120;24.732;2023-02-28T08:54:50;100184.63;;;12.37;100.00
8416;BME280;4245;42.120;24.732;2023-02-28T08:57:17;100185.41;;;12.39;100.00
8416;BME280;4245;42.120;24.732;2023-02-28T08:59:46;100183.09;;;12.47;100.00
8416;BME280;4245;42.120;24.732;2023-02-28T09:02:13;100189.28;;;12.47;100.00
8416;BME280;4245;42.120;24.732;2023-02-28T09:04:40;100181.19;;;12.35;100.00
8416;BME280;4245;42.120;24.732;2023-02-28T09:07:07;100186.22;;;12.39;100.00
8416;BME280;4245;42.120;24.732;2023-02-28T09:09:34;100191.97;;;12.33;100.00
8416;BME280;4245;42.120;24.732;2023-02-28T09:12:01;100188.34;;;12.34;100.00
8416;BME280;4245;42.120;24.732;2023-02-28T09:14:28;100190.53;;;12.42;100.00
8416;BME280;4245;42.120;24.732;2023-02-28T09:16:56;100185.50;;;12.23;100.00
8416;BME280;4245;42.120;24.732;2023-02-28T09:19:24;100173.69;;;12.27;100.00
8416;BME280;4245;42.120;24.732;2023-02-28T09:21:51;100181.28;;;12.47;100.00
8416;BME280;4245;42.120;24.732;2023-02-28T09:24:18;100174.47;;;12.70;100.00
8416;BME280;4245;42.120;24.732;2023-02-28T09:26:45;100174.28;;;13.00;100.00
8416;BME280;4245;42.120;24.732;2023-02-28T09:29:12;100174.56;;;12.83;100.00
8416;BME280;4245;42.120;24.732;2023-02-28T09:31:39;100166.25;;;12.73;100.00
8416;BME280;4245;42.120;24.732;2023-02-28T09:34:08;100164.16;;;12.78;100.00
8416;BME280;4245;42.120;24.732;2023-02-28T09:36:35;100166.06;;;13.03;100.00
8416;BME280;4245;42.120;24.732;2023-02-28T09:39:03;100171.88;;;13.10;99.60
8416;BME280;4245;42.120;24.732;2023-02-28T09:41:36;100170.81;;;12.85;100.00
8416;BME280;4245;42.120;24.732;2023-02-28T09:44:16;100170.81;;;12.85;100.00
8416;BME280;4245;42.120;24.732;2023-02-28T09:46:48;100169.66;;;12.89;100.00
8416;BME280;4245;42.120;24.732;2023-02-28T09:49:23;100168.75;;;13.03;100.00
8416;BME280;4245;42.120;24.732;2023-02-28T09:51:56;100166.53;;;13.10;99.84
8416;BME280;4245;42.120;24.732;2023-02-28T09:54:28;100164.09;;;13.06;99.14
8416;BME280;4245;42.120;24.732;2023-02-28T09:56:58;100160.00;;;13.01;99.39
8416;BME280;4245;42.120;24.732;2023-02-28T09:59:35;100162.47;;;12.77;100.00
8416;BME280;4245;42.120;24.732;2023-02-28T10:02:17;100146.72;;;12.87;100.00
8416;BME280;4245;42.120;24.732;2023-02-28T10:04:51;100132.63;;;12.85;100.00
8416;BME280;4245;42.120;24.732;2023-02-28T10:07:36;100130.97;;;12.96;100.00
8416;BME280;4245;42.120;24.732;2023-02-28T10:10:15;100134.03;;;12.90;100.00
8416;BME280;4245;42.120;24.732;2023-02-28T10:12:45;100144.78;;;12.89;100.00
8416;BME280;4245;42.120;24.732;2023-02-28T10:15:14;100139.97;;;12.81;100.00
8416;BME280;4245;42.120;24.732;2023-02-28T10:17:45;100140.47;;;12.74;100.00
8416;BME280;4245;42.120;24.732;2023-02-28T10:20:19;100126.31;;;12.59;100.00
8416;BME280;4245;42.120;24.732;2023-02-28T10:22:53;100134.28;;;12.73;100.00
8416;BME280;4245;42.120;24.732;2023-02-28T10:25:26;100124.72;;;12.83;100.00
8416;BME280;4245;42.120;24.732;2023-02-28T10:27:54;100126.34;;;12.86;100.00
8416;BME280;4245;42.120;24.732;2023-02-28T10:30:21;100124.47;;;12.74;100.00
8416;BME280;4245;42.120;24.732;2023-02-28T10:32:50;100121.72;;;12.48;100.00
8416;BME280;4245;42.120;24.732;2023-02-28T10:35:21;100126.22;;;12.34;100.00
8416;BME280;4245;42.120;24.732;2023-02-28T10:37:50;100122.28;;;12.39;100.00
8416;BME280;4245;42.120;24.732;2023-02-28T10:40:32;100120.88;;;12.34;100.00
8416;BME280;4245;42.120;24.732;2023-02-28T10:43:03;100121.75;;;12.20;100.00
8416;BME280;4245;42.120;24.732;2023-02-28T10:45:31;100122.00;;;12.30;100.00
8416;BME280;4245;42.120;24.732;2023-02-28T10:48:02;100116.97;;;12.25;100.00
8416;BME280;4245;42.120;24.732;2023-02-28T10:50:39;100122.22;;;12.12;100.00
8416;BME280;4245;42.120;24.732;2023-02-28T10:53:17;100119.56;;;12.12;100.00
8416;BME280;4245;42.120;24.732;2023-02-28T10:55:56;100111.22;;;12.18;100.00
8416;BME280;4245;42.120;24.732;2023-02-28T10:58:25;100108.34;;;12.07;100.00
8416;BME280;4245;42.120;24.732;2023-02-28T11:00:53;100109.03;;;11.97;100.00
8416;BME280;4245;42.120;24.732;2023-02-28T11:03:31;100100.56;;;12.04;100.00
8416;BME280;4245;42.120;24.732;2023-02-28T11:06:05;100105.72;;;11.79;100.00
8416;BME280;4245;42.120;24.732;2023-02-28T11:08:34;100112.13;;;11.61;100.00
8416;BME280;4245;42.120;24.732;2023-02-28T11:11:04;100105.84;;;11.62;100.00
8416;BME280;4245;42.120;24.732;2023-02-28T11:13:35;100101.47;;;11.47;100.00
8416;BME280;4245;42.120;24.732;2023-02-28T11:16:04;100096.31;;;11.44;100.00
8416;BME280;4245;42.120;24.732;2023-02-28T11:18:38;100101.84;;;11.41;100.00
8416;BME280;4245;42.120;24.732;2023-02-28T11:21:09;100102.97;;;11.37;100.00
8416;BME280;4245;42.120;24.732;2023-02-28T11:23:41;100098.03;;;11.30;100.00
8416;BME280;4245;42.120;24.732;2023-02-28T11:26:09;100090.75;;;11.18;100.00
8416;BME280;4245;42.120;24.732;2023-02-28T11:28:38;100083.56;;;11.20;100.00
8416;BME280;4245;42.120;24.732;2023-02-28T11:31:15;100092.75;;;11.15;100.00
8416;BME280;4245;42.120;24.732;2023-02-28T11:33:47;100099.31;;;11.23;100.00
8416;BME280;4245;42.120;24.732;2023-02-28T11:36:20;100095.78;;;11.09;100.00
8416;BME280;4245;42.120;24.732;2023-02-28T11:38:50;100093.41;;;11.18;100.00
8416;BME280;4245;42.120;24.732;2023-02-28T11:41:31;100086.81;;;11.25;100.00
8416;BME280;4245;42.120;24.732;2023-02-28T11:44:15;100086.25;;;11.49;100.00
8416;BME280;4245;42.120;24.732;2023-02-28T11:46:49;100083.50;;;11.36;100.00
8416;BME280;4245;42.120;24.732;2023-02-28T11:49:31;100088.69;;;11.23;100.00
8416;BME280;4245;42.120;24.732;2023-02-28T11:52:10;100089.03;;;11.03;100.00
8416;BME280;4245;42.120;24.732;2023-02-28T11:57:56;100083.97;;;10.69;100.00
8416;BME280;4245;42.120;24.732;2023-02-28T12:00:43;100082.25;;;10.68;100.00
8416;BME280;4245;42.120;24.732;2023-02-28T12:03:20;100073.97;;;10.58;100.00
8416;BME280;4245;42.120;24.732;2023-02-28T12:06:00;100077.13;;;10.65;100.00
8416;BME280;4245;42.120;24.732;2023-02-28T12:08:44;100074.41;;;10.80;100.00
8416;BME280;4245;42.120;24.732;2023-02-28T12:11:19;100073.25;;;10.70;100.00
8416;BME280;4245;42.120;24.732;2023-02-28T12:14:00;100068.56;;;10.60;100.00
8416;BME280;4245;42.120;24.732;2023-02-28T12:16:41;100072.09;;;10.44;100.00
8416;BME280;4245;42.120;24.732;2023-02-28T12:19:19;100069.78;;;10.54;100.00
8416;BME280;4245;42.120;24.732;2023-02-28T12:22:01;100065.41;;;10.53;100.00
8416;BME280;4245;42.120;24.732;2023-02-28T12:25:02;100069.50;;;10.59;100.00
8416;BME280;4245;42.120;24.732;2023-02-28T12:27:39;100077.84;;;10.37;100.00
8416;BME280;4245;42.120;24.732;2023-02-28T12:30:14;100073.56;;;10.34;100.00
8416;BME280;4245;42.120;24.732;2023-02-28T12:32:45;100069.00;;;10.36;100.00
8416;BME280;4245;42.120;24.732;2023-02-28T12:35:17;100070.84;;;10.36;100.00
8416;BME280;4245;42.120;24.732;2023-02-28T12:37:50;100063.69;;;10.36;100.00
8416;BME280;4245;42.120;24.732;2023-02-28T12:40:21;100061.31;;;10.32;100.00
8416;BME280;4245;42.120;24.732;2023-02-28T12:42:51;100060.69;;;10.27;100.00
8416;BME280;4245;42.120;24.732;2023-02-28T12:45:20;100060.38;;;10.33;100.00
8416;BME280;4245;42.120;24.732;2023-02-28T12:47:52;100044.63;;;10.30;100.00
8416;BME280;4245;42.120;24.732;2023-02-28T12:50:24;100055.13;;;10.31;100.00
8416;BME280;4245;42.120;24.732;2023-02-28T12:52:54;100062.59;;;10.25;100.00
8416;BME280;4245;42.120;24.732;2023-02-28T12:55:29;100050.78;;;10.30;100.00
8416;BME280;4245;42.120;24.732;2023-02-28T12:58:07;100053.97;;;10.21;100.00
8416;BME280;4245;42.120;24.732;2023-02-28T13:00:37;100047.69;;;10.22;100.00
8416;BME280;4245;42.120;24.732;2023-02-28T13:06:19;100049.16;;;10.28;100.00
8416;BME280;4245;42.120;24.732;2023-02-28T13:09:04;100044.78;;;10.27;100.00
8416;BME280;4245;42.120;24.732;2023-02-28T13:11:39;100046.50;;;10.28;100.00
8416;BME280;4245;42.120;24.732;2023-02-28T13:14:18;100046.41;;;10.29;100.00
8416;BME280;4245;42.120;24.732;2023-02-28T13:16:59;100047.94;;;10.18;100.00
8416;BME280;4245;42.120;24.732;2023-02-28T13:19:30;100042.19;;;10.10;100.00
8416;BME280;4245;42.120;24.732;2023-02-28T13:21:57;100047.75;;;10.05;100.00
8416;BME280;4245;42.120;24.732;2023-02-28T13:24:41;100047.50;;;10.10;100.00